Portada
METAR-TAF:

METAR-TAF

Aeroports :

Charlevoix Municipal Airport

Charlevoix, Michigan, Estats Units d'Amèrica

latitud: 45-18-17N, longitud: 085-16-29W, altitud: 204 m

Observació

L'informe es va fer fa 25 minuts, a les 02:15 UTC
Vent 3 kt del Est
Temperatura 23°C
Humitat 78%
Pressió 1014 hPa
Visibilitat: 16.1 km
Cel ennuvolat a una alçada de 8500 ft
Cel cobert a una alçada de 11000 ft

METAR: KCVX 280215Z AUTO 08003KT 10SM BKN085 OVC110 23/19 A2993 RMK AO2 T02300190

Hora: 22:40 (02:40 UTC)


TAF: manca

Observacions i pronòstics meteorològics de més de 4000 aeroports (METAR i TAF).

Les estacions disponibles són els punts grocs i vermells al mapa.

Posi el ratolí al punt desitjat per veure el nom de l'estació.

Feu clic per veure les observacions i els pronòstics meteorològics.

Per canviar el mapa: feu clic els botons verds amb una creu de color negre per apropar; al botó verd amb un guió per allunyar la imatge; o en les fletxes verdes per a mapes adjacents.


METAR-TAF: